KMTO/MTO METAR and TAF weather

Enter ICAO airport designator
Station Type Date Time Source
KMTO METAR 2020/07/15 04:53 UTC NOAA

KMTO 150453Z AUTO 00000KT 10SM CLR 21/18 A3004 RMK AO2 SLP166 T02110178


Station Type Date Time Source
KMTO Decoded METAR 2020/07/15 04:53 UTC NOAA

MATTOON/CHARLESTON COLES CO, IL, United States (KMTO) 39-28N 88-16W 214M
Jul 15, 2020 - 12:53 AM EDT / 2020.07.15 0453 UTC
Wind: Calm:0
Visibility: 10 mile(s):0
Sky conditions: clear
Temperature: 70.0 F (21.1 C)
Dew Point: 64.0 F (17.8 C)
Relative Humidity: 81%
Pressure (altimeter): 30.04 in. Hg (1017 hPa)
ob: KMTO 150453Z AUTO 00000KT 10SM CLR 21/18 A3004 RMK AO2 SLP166 T02110178
cycle: 5

Station Type Date Time Source
KMTO TAF UTC NOAA

Error!

Example: see airport list